createdAt,value
2022-08-19T00:02:01.922Z,6.63
2022-08-19T00:04:33.562Z,6.68
2022-08-19T00:07:00.947Z,6.68
2022-08-19T00:09:28.439Z,7.10
2022-08-19T00:11:57.394Z,7.05
2022-08-19T00:14:26.313Z,7.20
2022-08-19T00:16:55.475Z,6.15
2022-08-19T00:19:23.777Z,9.75
2022-08-19T00:21:51.233Z,6.38
2022-08-19T00:24:17.943Z,7.22
2022-08-19T00:26:46.427Z,6.60
2022-08-19T00:29:16.011Z,6.75
2022-08-19T00:31:44.110Z,7.18
2022-08-19T00:34:12.892Z,6.13
2022-08-19T00:36:40.588Z,7.05
2022-08-19T00:39:07.674Z,5.65
2022-08-19T00:41:34.784Z,7.30
2022-08-19T00:44:15.788Z,7.70
2022-08-19T00:46:45.025Z,7.53
2022-08-19T00:49:38.772Z,6.53
2022-08-19T00:52:09.614Z,6.03
2022-08-19T00:54:38.212Z,6.80
2022-08-19T00:57:08.939Z,6.18
2022-08-19T01:00:00.272Z,6.38
2022-08-19T01:02:28.679Z,5.80
2022-08-19T01:04:55.808Z,5.47
2022-08-19T01:07:22.707Z,7.30
2022-08-19T01:09:50.908Z,6.78
2022-08-19T01:12:19.192Z,6.97
2022-08-19T01:14:47.727Z,5.95
2022-08-19T01:17:16.125Z,6.55
2022-08-19T01:19:46.207Z,7.88
2022-08-19T01:22:16.689Z,6.25
2022-08-19T01:24:47.426Z,7.38
2022-08-19T01:27:17.868Z,6.50
2022-08-19T01:29:46.032Z,6.45
2022-08-19T01:32:33.533Z,6.25
2022-08-19T01:35:02.859Z,5.43
2022-08-19T01:37:30.450Z,6.10
2022-08-19T01:39:57.488Z,6.75
2022-08-19T01:42:30.307Z,6.60
2022-08-19T01:44:58.480Z,6.35
2022-08-19T01:47:25.410Z,7.63
2022-08-19T01:49:52.133Z,6.22
2022-08-19T01:52:18.778Z,6.28
2022-08-19T01:54:45.472Z,8.85
2022-08-19T01:57:14.468Z,8.60
2022-08-19T01:59:43.854Z,8.88
2022-08-19T02:02:10.552Z,6.90
2022-08-19T02:04:39.147Z,6.80
2022-08-19T02:07:07.351Z,8.82
2022-08-19T02:09:34.152Z,6.97
2022-08-19T02:12:01.003Z,7.07
2022-08-19T02:14:28.099Z,7.82
2022-08-19T02:16:54.736Z,6.40
2022-08-19T02:19:21.520Z,7.57
2022-08-19T02:21:48.499Z,7.07
2022-08-19T02:24:15.214Z,5.45
2022-08-19T02:26:41.861Z,6.47
2022-08-19T02:29:08.836Z,5.78
2022-08-19T02:31:35.510Z,8.07
2022-08-19T02:34:02.242Z,7.72
2022-08-19T02:36:29.215Z,9.10
2022-08-19T02:38:56.976Z,9.43
2022-08-19T02:41:29.280Z,8.23
2022-08-19T02:44:29.791Z,9.18
2022-08-19T02:46:47.433Z,9.20
2022-08-19T02:49:17.547Z,11.45
2022-08-19T02:51:46.517Z,9.98
2022-08-19T02:54:14.656Z,10.13
2022-08-19T02:56:44.131Z,10.32
2022-08-19T02:59:11.164Z,11.73
2022-08-19T03:01:40.725Z,10.88
2022-08-19T03:04:09.134Z,12.27
2022-08-19T03:06:41.798Z,13.70
2022-08-19T03:09:09.059Z,11.63
2022-08-19T03:11:35.912Z,10.85
2022-08-19T03:14:04.685Z,10.45
2022-08-19T03:16:34.983Z,11.80
2022-08-19T03:19:02.758Z,13.93
2022-08-19T03:21:34.828Z,11.40
2022-08-19T03:24:08.805Z,10.93
2022-08-19T03:26:40.801Z,12.82
2022-08-19T03:29:11.724Z,10.75
2022-08-19T03:31:51.080Z,11.13
2022-08-19T03:34:29.774Z,13.40
2022-08-19T03:36:59.475Z,12.90
2022-08-19T03:39:27.412Z,11.93
2022-08-19T03:42:29.207Z,11.45
2022-08-19T03:44:45.946Z,12.57
2022-08-19T03:47:17.654Z,10.63
2022-08-19T03:49:44.831Z,13.38
2022-08-19T03:52:11.533Z,12.15
2022-08-19T03:54:39.378Z,11.43
2022-08-19T03:57:07.128Z,10.30
2022-08-19T03:59:36.416Z,11.32
2022-08-19T04:02:09.448Z,9.68
2022-08-19T04:07:03.942Z,10.40
2022-08-19T04:09:30.594Z,8.43
2022-08-19T04:11:58.567Z,9.30
2022-08-19T04:14:30.492Z,8.25
2022-08-19T04:16:58.051Z,8.32
2022-08-19T04:19:24.932Z,9.55
2022-08-19T04:21:54.419Z,11.05
2022-08-19T04:24:22.839Z,10.05
2022-08-19T04:26:50.292Z,11.50
2022-08-19T04:29:23.094Z,8.10
2022-08-19T04:31:50.849Z,10.10
2022-08-19T04:34:23.288Z,10.88
2022-08-19T04:36:52.106Z,13.13
2022-08-19T04:39:23.264Z,11.63
2022-08-19T04:42:08.240Z,11.95
2022-08-19T04:44:39.875Z,11.38
2022-08-19T04:47:13.306Z,10.88
2022-08-19T04:49:40.057Z,9.90
2022-08-19T04:52:06.739Z,9.20
2022-08-19T04:54:37.645Z,10.20
2022-08-19T04:57:08.479Z,9.27
2022-08-19T04:59:36.188Z,9.43
2022-08-19T05:02:03.905Z,9.63
2022-08-19T05:04:33.358Z,11.45
2022-08-19T05:07:01.907Z,10.30
2022-08-19T05:09:53.299Z,10.52
2022-08-19T05:12:17.743Z,10.20
2022-08-19T05:14:46.050Z,12.30
2022-08-19T05:17:27.272Z,11.23
2022-08-19T05:20:14.592Z,12.20
2022-08-19T05:22:43.447Z,13.43
2022-08-19T05:25:14.696Z,11.93
2022-08-19T05:27:43.105Z,11.80
2022-08-19T05:30:12.278Z,12.45
2022-08-19T05:32:40.268Z,14.13
2022-08-19T05:35:07.496Z,14.60
2022-08-19T05:37:34.296Z,9.68
2022-08-19T05:40:01.193Z,11.93
2022-08-19T05:42:27.867Z,12.77
2022-08-19T05:44:54.761Z,11.60
2022-08-19T05:47:22.293Z,14.05
2022-08-19T05:49:50.878Z,15.80
2022-08-19T05:52:18.991Z,14.73
2022-08-19T05:54:51.501Z,15.32
2022-08-19T05:57:19.904Z,13.50
2022-08-19T05:59:52.715Z,13.18
2022-08-19T06:02:24.744Z,14.15
2022-08-19T06:04:51.422Z,14.82
2022-08-19T06:07:18.058Z,15.32
2022-08-19T06:09:59.048Z,15.15
2022-08-19T06:12:31.662Z,14.43
2022-08-19T06:15:01.659Z,15.25
2022-08-19T06:17:31.466Z,13.98
2022-08-19T06:19:59.496Z,14.25
2022-08-19T06:22:26.808Z,12.73
2022-08-19T06:24:55.027Z,13.73
2022-08-19T06:27:22.657Z,12.55
2022-08-19T06:29:50.930Z,14.05
2022-08-19T06:32:19.642Z,12.52
2022-08-19T06:34:47.368Z,12.65
2022-08-19T06:37:14.502Z,12.38
2022-08-19T06:39:44.183Z,12.80
2022-08-19T06:42:14.301Z,14.07
2022-08-19T06:44:43.785Z,11.65
2022-08-19T06:47:23.368Z,14.45
2022-08-19T06:49:55.149Z,14.35
2022-08-19T06:52:27.766Z,13.52
2022-08-19T06:54:56.990Z,12.38
2022-08-19T06:57:27.630Z,13.25
2022-08-19T06:59:54.520Z,11.45
2022-08-19T07:02:21.823Z,12.45
2022-08-19T07:04:52.643Z,9.98
2022-08-19T07:07:21.871Z,9.52
2022-08-19T07:09:51.766Z,11.38
2022-08-19T07:12:30.939Z,10.52
2022-08-19T07:14:59.029Z,11.98
2022-08-19T07:17:26.906Z,13.55
2022-08-19T07:19:54.110Z,9.57
2022-08-19T07:22:24.347Z,9.80
2022-08-19T07:24:52.697Z,13.10
2022-08-19T07:27:24.356Z,12.90
2022-08-19T07:29:56.163Z,13.03
2022-08-19T07:32:26.848Z,11.95
2022-08-19T07:34:53.670Z,13.63
2022-08-19T07:37:20.332Z,10.00
2022-08-19T07:39:47.045Z,12.45
2022-08-19T07:42:14.750Z,12.88
2022-08-19T07:44:42.287Z,10.23
2022-08-19T07:47:48.306Z,12.77
2022-08-19T07:50:07.768Z,12.77
2022-08-19T07:52:36.935Z,15.30
2022-08-19T07:55:05.273Z,14.50
2022-08-19T07:57:32.227Z,13.70
2022-08-19T07:59:59.990Z,12.10
2022-08-19T08:02:26.987Z,13.80
2022-08-19T08:05:12.404Z,12.38
2022-08-19T08:07:59.151Z,13.68
2022-08-19T08:10:26.162Z,12.65
2022-08-19T08:13:08.559Z,9.32
2022-08-19T08:15:42.630Z,11.70
2022-08-19T08:18:10.858Z,12.32
2022-08-19T08:20:37.739Z,11.65
2022-08-19T08:23:23.234Z,14.30
2022-08-19T08:25:50.454Z,11.85
2022-08-19T08:28:20.864Z,9.50
2022-08-19T08:30:50.632Z,14.73
2022-08-19T08:33:33.236Z,11.75
2022-08-19T08:36:10.410Z,11.82
2022-08-19T08:38:40.493Z,13.98
2022-08-19T08:41:20.731Z,13.00
2022-08-19T08:43:50.199Z,13.48
2022-08-19T08:46:31.381Z,14.40
2022-08-19T08:49:02.643Z,13.47
2022-08-19T08:51:44.065Z,13.75
2022-08-19T08:54:19.395Z,12.35
2022-08-19T08:56:48.882Z,12.80
2022-08-19T08:59:36.341Z,9.20
2022-08-19T09:02:03.304Z,11.63
2022-08-19T09:04:30.326Z,12.90
2022-08-19T09:07:33.866Z,10.80
2022-08-19T09:09:57.481Z,13.40
2022-08-19T09:12:47.297Z,10.90
2022-08-19T09:15:17.200Z,13.30
2022-08-19T09:17:43.850Z,14.60
2022-08-19T09:20:21.295Z,11.57
2022-08-19T09:22:50.191Z,8.77
2022-08-19T09:25:26.804Z,12.10
2022-08-19T09:28:01.168Z,12.43
2022-08-19T09:30:33.251Z,9.23
2022-08-19T09:33:00.761Z,12.50
2022-08-19T09:35:30.513Z,13.88
2022-08-19T09:38:00.073Z,11.02
2022-08-19T09:40:32.622Z,9.80
2022-08-19T09:43:09.969Z,10.45
2022-08-19T09:45:39.686Z,12.65
2022-08-19T09:48:07.251Z,14.23
2022-08-19T09:50:36.026Z,13.98
2022-08-19T09:53:02.726Z,13.07
2022-08-19T09:55:31.840Z,13.35
2022-08-19T09:58:00.811Z,13.25
2022-08-19T10:00:27.886Z,11.43
2022-08-19T10:02:54.528Z,11.30
2022-08-19T10:05:42.394Z,6.90
2022-08-19T10:08:13.103Z,13.68
2022-08-19T10:10:46.323Z,11.48
2022-08-19T10:13:15.305Z,11.52
2022-08-19T10:15:47.438Z,8.48
2022-08-19T10:18:17.732Z,8.48
2022-08-19T10:20:46.488Z,10.38
2022-08-19T10:23:21.075Z,10.60
2022-08-19T10:25:49.083Z,12.10
2022-08-19T10:28:16.094Z,12.77
2022-08-19T10:30:47.520Z,11.18
2022-08-19T10:33:15.026Z,10.00
2022-08-19T10:35:42.594Z,9.90
2022-08-19T10:38:22.916Z,11.02
2022-08-19T10:40:59.569Z,13.02
2022-08-19T10:43:26.270Z,12.32
2022-08-19T10:45:59.483Z,15.05
2022-08-19T10:48:26.292Z,12.40
2022-08-19T10:51:22.754Z,9.50
2022-08-19T10:53:50.655Z,12.23
2022-08-19T10:56:36.984Z,12.82
2022-08-19T10:59:04.408Z,13.07
2022-08-19T11:01:34.242Z,13.52
2022-08-19T11:04:03.345Z,14.10
2022-08-19T11:06:32.683Z,13.63
2022-08-19T11:09:00.991Z,17.55
2022-08-19T11:11:29.440Z,14.95
2022-08-19T11:13:56.576Z,12.85
2022-08-19T11:16:26.337Z,14.43
2022-08-19T11:18:55.983Z,13.82
2022-08-19T11:21:26.786Z,14.48
2022-08-19T11:23:56.945Z,12.45
2022-08-19T11:26:25.190Z,15.02
2022-08-19T11:28:55.253Z,15.07
2022-08-19T11:31:29.497Z,12.75
2022-08-19T11:34:00.931Z,15.82
2022-08-19T11:36:28.280Z,14.68
2022-08-19T11:38:55.046Z,16.13
2022-08-19T11:41:24.390Z,14.43
2022-08-19T11:43:53.939Z,15.75
2022-08-19T11:46:21.109Z,16.38
2022-08-19T11:48:49.107Z,15.15
2022-08-19T11:51:19.847Z,18.17
2022-08-19T11:53:46.769Z,16.85
2022-08-19T11:56:13.711Z,17.17
2022-08-19T11:58:43.070Z,16.67
2022-08-19T12:01:12.132Z,16.75
2022-08-19T12:03:39.360Z,17.75
2022-08-19T12:06:08.453Z,16.00
2022-08-19T12:08:35.679Z,17.40
2022-08-19T12:11:02.532Z,15.52
2022-08-19T12:13:31.110Z,17.20
2022-08-19T12:15:59.277Z,18.20
2022-08-19T12:18:26.035Z,16.85
2022-08-19T12:20:55.604Z,18.23
2022-08-19T12:23:22.287Z,16.98
2022-08-19T12:25:52.885Z,16.83
2022-08-19T12:28:25.074Z,17.50
2022-08-19T12:30:52.380Z,19.90
2022-08-19T12:33:24.580Z,16.80
2022-08-19T12:35:51.564Z,16.40
2022-08-19T12:38:18.838Z,14.70
2022-08-19T12:40:50.474Z,17.20
2022-08-19T12:43:17.150Z,17.75
2022-08-19T12:45:45.144Z,16.13
2022-08-19T12:48:34.855Z,18.10
2022-08-19T12:51:06.558Z,18.77
2022-08-19T12:53:33.215Z,16.73
2022-08-19T12:56:01.482Z,18.25
2022-08-19T12:58:29.938Z,16.98
2022-08-19T13:00:56.735Z,18.63
2022-08-19T13:03:28.479Z,17.45
2022-08-19T13:05:55.146Z,17.05
2022-08-19T13:08:21.788Z,16.98
2022-08-19T13:10:48.447Z,14.63
2022-08-19T13:13:15.123Z,15.07
2022-08-19T13:15:43.264Z,17.88
2022-08-19T13:18:11.350Z,17.42
2022-08-19T13:20:38.850Z,16.27
2022-08-19T13:23:05.718Z,17.88
2022-08-19T13:25:32.635Z,19.10
2022-08-19T13:28:00.765Z,17.63
2022-08-19T13:30:47.225Z,19.92
2022-08-19T13:33:16.688Z,18.13
2022-08-19T13:35:50.783Z,14.88
2022-08-19T13:38:21.547Z,14.52
2022-08-19T13:40:52.528Z,13.98
2022-08-19T13:43:23.819Z,13.75
2022-08-19T13:45:54.881Z,13.50
2022-08-19T13:48:21.754Z,13.48
2022-08-19T13:50:49.159Z,13.63
2022-08-19T13:53:17.137Z,15.05
2022-08-19T13:55:44.786Z,13.90
2022-08-19T13:58:12.571Z,18.85
2022-08-19T14:00:45.727Z,16.73
2022-08-19T14:03:12.626Z,16.17
2022-08-19T14:05:39.635Z,16.13
2022-08-19T14:08:06.611Z,16.80
2022-08-19T14:10:34.333Z,17.67
2022-08-19T14:13:03.091Z,18.58
2022-08-19T14:15:31.121Z,18.35
2022-08-19T14:17:58.580Z,23.75
2022-08-19T14:20:26.041Z,20.45
2022-08-19T14:22:53.889Z,20.10
2022-08-19T14:25:23.874Z,19.75
2022-08-19T14:27:51.132Z,18.67
2022-08-19T14:30:29.279Z,19.88
2022-08-19T14:32:59.091Z,21.67
2022-08-19T14:35:28.005Z,19.52
2022-08-19T14:37:56.793Z,18.95
2022-08-19T14:40:29.715Z,17.45
2022-08-19T14:43:04.898Z,19.70
2022-08-19T14:45:37.146Z,18.35
2022-08-19T14:48:05.862Z,18.25
2022-08-19T14:50:33.166Z,16.50
2022-08-19T14:53:08.108Z,15.10
2022-08-19T14:55:42.574Z,15.10
2022-08-19T14:58:09.921Z,16.67
2022-08-19T15:00:57.105Z,16.70
2022-08-19T15:03:23.794Z,14.85
2022-08-19T15:05:50.499Z,16.52
2022-08-19T15:08:17.166Z,17.58
2022-08-19T15:10:43.813Z,16.30
2022-08-19T15:13:10.921Z,15.75
2022-08-19T15:15:38.319Z,13.52
2022-08-19T15:18:05.052Z,10.55
2022-08-19T15:20:32.036Z,11.50
2022-08-19T15:23:02.567Z,12.05
2022-08-19T15:25:29.424Z,11.05
2022-08-19T15:27:56.412Z,10.27
2022-08-19T15:30:26.160Z,9.48
2022-08-19T15:32:55.796Z,8.00
2022-08-19T15:35:23.466Z,6.68
2022-08-19T15:37:52.385Z,6.70
2022-08-19T15:40:21.123Z,8.90
2022-08-19T15:42:49.829Z,8.88
2022-08-19T15:45:18.997Z,7.80
2022-08-19T15:47:46.186Z,6.53
2022-08-19T15:50:19.163Z,5.72
2022-08-19T15:52:50.015Z,5.57
2022-08-19T15:55:33.673Z,7.68
2022-08-19T15:58:28.251Z,7.18
2022-08-19T16:01:20.653Z,6.88
2022-08-19T16:04:13.821Z,7.20
2022-08-19T16:06:44.157Z,6.25
2022-08-19T16:09:10.954Z,7.22
2022-08-19T16:11:39.717Z,5.72
2022-08-19T16:14:09.425Z,5.25
2022-08-19T16:16:37.311Z,6.53
2022-08-19T16:19:10.419Z,6.57
2022-08-19T16:21:41.880Z,6.20
2022-08-19T16:24:13.104Z,6.43
2022-08-19T16:26:41.240Z,6.68
2022-08-19T16:29:13.092Z,5.35
2022-08-19T16:31:44.584Z,6.97
2022-08-19T16:34:12.162Z,6.00
2022-08-19T16:36:42.055Z,8.30
2022-08-19T16:39:14.669Z,6.55
2022-08-19T16:41:42.684Z,5.82
2022-08-19T16:44:11.973Z,5.75
2022-08-19T16:46:39.874Z,5.57
2022-08-19T16:49:07.226Z,7.07
2022-08-19T16:51:33.933Z,8.20
2022-08-19T16:54:01.403Z,7.75
2022-08-19T16:56:29.028Z,8.45
2022-08-19T16:58:56.300Z,7.05
2022-08-19T17:01:23.002Z,6.03
2022-08-19T17:03:51.574Z,6.88
2022-08-19T17:06:21.151Z,5.50
2022-08-19T17:08:52.403Z,5.28
2022-08-19T17:11:21.207Z,5.13
2022-08-19T17:13:49.463Z,5.70
2022-08-19T17:16:18.651Z,6.20
2022-08-19T17:18:45.738Z,6.30
2022-08-19T17:21:13.333Z,5.40
2022-08-19T17:23:43.743Z,6.57
2022-08-19T17:26:18.035Z,6.35
2022-08-19T17:28:50.197Z,6.18
2022-08-19T17:31:19.306Z,5.85
2022-08-19T17:33:48.034Z,5.88
2022-08-19T17:36:23.400Z,5.93
2022-08-19T17:38:50.890Z,7.28
2022-08-19T17:41:17.656Z,7.50
2022-08-19T17:43:45.194Z,7.10
2022-08-19T17:46:22.419Z,5.97
2022-08-19T17:48:52.777Z,9.02
2022-08-19T17:51:42.393Z,5.28
2022-08-19T17:54:12.331Z,6.00
2022-08-19T17:56:39.167Z,8.32
2022-08-19T17:59:07.878Z,7.82
2022-08-19T18:01:53.543Z,7.78
2022-08-19T18:04:22.675Z,8.55
2022-08-19T18:06:53.106Z,5.90
2022-08-19T18:09:24.045Z,6.47
2022-08-19T18:11:53.242Z,4.95
2022-08-19T18:14:33.373Z,6.18
2022-08-19T18:17:12.492Z,5.65
2022-08-19T18:19:43.052Z,5.03
2022-08-19T18:22:36.374Z,4.72
2022-08-19T18:25:13.986Z,4.70
2022-08-19T18:27:43.431Z,3.72
2022-08-19T18:30:10.860Z,3.88
2022-08-19T18:32:39.434Z,5.30
2022-08-19T18:35:11.393Z,4.28
2022-08-19T18:37:40.403Z,4.03
2022-08-19T18:40:26.891Z,2.72
2022-08-19T18:43:22.388Z,3.72
2022-08-19T18:46:08.375Z,3.58
2022-08-19T18:48:54.890Z,3.70
2022-08-19T18:51:27.742Z,3.28
2022-08-19T18:53:57.279Z,3.15
2022-08-19T18:56:28.309Z,3.38
2022-08-19T18:58:58.788Z,3.70
2022-08-19T19:01:33.307Z,2.78
2022-08-19T19:04:11.391Z,2.25
2022-08-19T19:06:41.129Z,3.15
2022-08-19T19:09:10.531Z,2.60
2022-08-19T19:11:40.567Z,2.47
2022-08-19T19:14:23.309Z,2.92
2022-08-19T19:17:02.155Z,2.45
2022-08-19T19:19:30.739Z,3.50
2022-08-19T19:21:58.699Z,2.40
2022-08-19T19:24:32.700Z,2.38
2022-08-19T19:27:05.456Z,2.65
2022-08-19T19:29:37.192Z,2.33
2022-08-19T19:32:07.223Z,2.42
2022-08-19T19:34:34.193Z,2.67
2022-08-19T19:37:01.332Z,2.08
2022-08-19T19:39:34.012Z,2.03
2022-08-19T19:42:20.564Z,1.70
2022-08-19T19:44:50.580Z,1.55
2022-08-19T19:47:19.177Z,2.10
2022-08-19T19:52:39.728Z,1.30
2022-08-19T19:55:07.516Z,1.90
2022-08-19T19:57:34.251Z,2.35
2022-08-19T20:00:01.053Z,1.75
2022-08-19T20:02:27.757Z,1.63
2022-08-19T20:04:56.280Z,1.30
2022-08-19T20:07:43.831Z,1.75
2022-08-19T20:10:10.470Z,2.40
2022-08-19T20:12:37.148Z,1.77
2022-08-19T20:15:04.858Z,1.58
2022-08-19T20:17:32.607Z,1.40
2022-08-19T20:19:59.313Z,1.10
2022-08-19T20:22:26.032Z,2.17
2022-08-19T20:24:53.863Z,1.85
2022-08-19T20:27:21.608Z,1.65
2022-08-19T20:29:50.966Z,1.48
2022-08-19T20:32:18.659Z,1.10
2022-08-19T20:34:49.063Z,1.20
2022-08-19T20:37:15.878Z,1.65
2022-08-19T20:39:42.801Z,2.28
2022-08-19T20:42:09.446Z,1.80
2022-08-19T20:44:37.795Z,4.15
2022-08-19T20:47:04.713Z,2.58
2022-08-19T20:49:32.216Z,3.47
2022-08-19T20:51:58.917Z,2.72
2022-08-19T20:54:27.026Z,1.48
2022-08-19T20:56:53.747Z,1.85
2022-08-19T20:59:21.692Z,2.90
2022-08-19T21:01:51.741Z,2.42
2022-08-19T21:04:19.469Z,2.13
2022-08-19T21:06:46.192Z,2.70
2022-08-19T21:09:13.790Z,2.75
2022-08-19T21:11:40.647Z,2.65
2022-08-19T21:14:08.278Z,1.85
2022-08-19T21:16:34.976Z,1.10
2022-08-19T21:19:01.687Z,1.17
2022-08-19T21:21:28.738Z,1.30
2022-08-19T21:23:55.434Z,3.05
2022-08-19T21:26:22.096Z,1.73
2022-08-19T21:28:48.763Z,1.45
2022-08-19T21:31:17.832Z,1.27
2022-08-19T21:33:45.259Z,2.28
2022-08-19T21:36:12.091Z,1.75
2022-08-19T21:38:38.794Z,1.25
2022-08-19T21:41:06.549Z,2.80
2022-08-19T21:43:35.211Z,1.25
2022-08-19T21:46:02.317Z,2.70
2022-08-19T21:48:29.053Z,1.00
2022-08-19T21:50:55.864Z,1.58
2022-08-19T21:53:23.014Z,0.95
2022-08-19T21:55:53.508Z,1.70
2022-08-19T21:58:28.794Z,1.15
2022-08-19T22:00:58.676Z,1.85
2022-08-19T22:03:26.080Z,1.85
2022-08-19T22:05:52.855Z,1.20
2022-08-19T22:08:19.510Z,1.98
2022-08-19T22:10:46.489Z,1.60
2022-08-19T22:13:13.542Z,1.83
2022-08-19T22:15:41.098Z,2.00
2022-08-19T22:18:07.760Z,1.70
2022-08-19T22:20:34.459Z,1.17
2022-08-19T22:23:04.882Z,1.77
2022-08-19T22:25:35.522Z,2.17
2022-08-19T22:28:04.946Z,1.10
2022-08-19T22:30:35.847Z,1.38
2022-08-19T22:33:06.475Z,1.52
2022-08-19T22:35:37.527Z,2.03
2022-08-19T22:38:07.337Z,1.10
2022-08-19T22:40:39.548Z,1.10
2022-08-19T22:43:12.110Z,1.43
2022-08-19T22:45:39.261Z,1.15
2022-08-19T22:48:08.367Z,1.13
2022-08-19T22:50:36.243Z,2.15
2022-08-19T22:53:04.574Z,1.63
2022-08-19T22:55:31.448Z,1.92
2022-08-19T22:57:59.049Z,2.70
2022-08-19T23:00:27.978Z,1.73
2022-08-19T23:02:56.415Z,1.63
2022-08-19T23:05:26.074Z,1.42
2022-08-19T23:07:54.242Z,1.00
2022-08-19T23:10:26.968Z,1.35
2022-08-19T23:12:56.843Z,1.45
2022-08-19T23:15:26.545Z,1.10
2022-08-19T23:17:55.101Z,2.55
2022-08-19T23:20:23.672Z,1.70
2022-08-19T23:22:50.987Z,2.15
2022-08-19T23:25:21.155Z,1.88
2022-08-19T23:28:06.976Z,2.20
2022-08-19T23:30:36.755Z,3.72
2022-08-19T23:33:14.297Z,1.88
2022-08-19T23:35:41.746Z,1.90
2022-08-19T23:38:10.113Z,1.88
2022-08-19T23:40:38.550Z,2.42
2022-08-19T23:43:08.127Z,1.40
2022-08-19T23:45:41.320Z,1.38
2022-08-19T23:48:18.505Z,1.40
2022-08-19T23:50:46.267Z,1.05
2022-08-19T23:53:13.759Z,1.73
2022-08-19T23:55:43.111Z,1.67
2022-08-19T23:58:10.797Z,1.80
